sensor_id;sensor_type;location;lat;lon;timestamp;temperature;humidity
26623;DHT22;14254;50.968;5.366;2023-08-17T00:01:26;19.90;99.90
26623;DHT22;14254;50.968;5.366;2023-08-17T00:03:52;19.80;99.90
26623;DHT22;14254;50.968;5.366;2023-08-17T00:06:18;19.80;99.90
26623;DHT22;14254;50.968;5.366;2023-08-17T00:08:44;19.90;99.90
26623;DHT22;14254;50.968;5.366;2023-08-17T00:11:10;19.80;99.90
26623;DHT22;14254;50.968;5.366;2023-08-17T00:13:36;19.90;99.90
26623;DHT22;14254;50.968;5.366;2023-08-17T00:16:01;19.80;99.90
26623;DHT22;14254;50.968;5.366;2023-08-17T00:18:27;19.80;99.90
26623;DHT22;14254;50.968;5.366;2023-08-17T00:20:53;19.80;99.90
26623;DHT22;14254;50.968;5.366;2023-08-17T00:23:18;19.70;99.90
26623;DHT22;14254;50.968;5.366;2023-08-17T00:25:46;19.70;99.90
26623;DHT22;14254;50.968;5.366;2023-08-17T00:28:13;19.60;99.90
26623;DHT22;14254;50.968;5.366;2023-08-17T00:30:39;19.60;99.90
26623;DHT22;14254;50.968;5.366;2023-08-17T00:33:05;19.60;99.90
26623;DHT22;14254;50.968;5.366;2023-08-17T00:35:31;19.60;99.90
26623;DHT22;14254;50.968;5.366;2023-08-17T00:37:56;19.50;99.90
26623;DHT22;14254;50.968;5.366;2023-08-17T00:40:22;19.50;99.90
26623;DHT22;14254;50.968;5.366;2023-08-17T00:42:48;19.50;99.90
26623;DHT22;14254;50.968;5.366;2023-08-17T00:45:15;19.40;99.90
26623;DHT22;14254;50.968;5.366;2023-08-17T00:47:41;19.40;99.90
26623;DHT22;14254;50.968;5.366;2023-08-17T00:50:08;19.40;99.90
26623;DHT22;14254;50.968;5.366;2023-08-17T00:52:34;19.40;99.90
26623;DHT22;14254;50.968;5.366;2023-08-17T00:55:01;19.50;99.90
26623;DHT22;14254;50.968;5.366;2023-08-17T00:57:29;19.50;99.90
26623;DHT22;14254;50.968;5.366;2023-08-17T00:59:55;19.60;99.90
26623;DHT22;14254;50.968;5.366;2023-08-17T01:02:21;19.60;99.90
26623;DHT22;14254;50.968;5.366;2023-08-17T01:04:47;19.70;99.90
26623;DHT22;14254;50.968;5.366;2023-08-17T01:07:12;19.60;99.90
26623;DHT22;14254;50.968;5.366;2023-08-17T01:09:38;19.60;99.90
26623;DHT22;14254;50.968;5.366;2023-08-17T01:12:19;19.60;99.90
26623;DHT22;14254;50.968;5.366;2023-08-17T01:14:59;19.60;99.90
26623;DHT22;14254;50.968;5.366;2023-08-17T01:17:33;19.60;99.90
26623;DHT22;14254;50.968;5.366;2023-08-17T01:20:00;19.50;99.90
26623;DHT22;14254;50.968;5.366;2023-08-17T01:22:30;19.50;99.90
26623;DHT22;14254;50.968;5.366;2023-08-17T01:24:58;19.50;99.90
26623;DHT22;14254;50.968;5.366;2023-08-17T01:27:24;19.50;99.90
26623;DHT22;14254;50.968;5.366;2023-08-17T01:29:51;19.60;99.90
26623;DHT22;14254;50.968;5.366;2023-08-17T01:32:44;19.60;99.90
26623;DHT22;14254;50.968;5.366;2023-08-17T01:37:53;19.60;99.90
26623;DHT22;14254;50.968;5.366;2023-08-17T01:40:21;19.60;99.90
26623;DHT22;14254;50.968;5.366;2023-08-17T01:42:49;19.60;99.90
26623;DHT22;14254;50.968;5.366;2023-08-17T01:45:16;19.60;99.90
26623;DHT22;14254;50.968;5.366;2023-08-17T01:47:42;19.60;99.90
26623;DHT22;14254;50.968;5.366;2023-08-17T01:50:08;19.60;99.90
26623;DHT22;14254;50.968;5.366;2023-08-17T01:52:34;19.70;99.90
26623;DHT22;14254;50.968;5.366;2023-08-17T01:55:00;19.70;99.90
26623;DHT22;14254;50.968;5.366;2023-08-17T01:57:26;19.70;99.90
26623;DHT22;14254;50.968;5.366;2023-08-17T01:59:51;19.60;99.90
26623;DHT22;14254;50.968;5.366;2023-08-17T02:02:17;19.50;99.90
26623;DHT22;14254;50.968;5.366;2023-08-17T02:04:43;19.60;99.90
26623;DHT22;14254;50.968;5.366;2023-08-17T02:07:08;19.70;99.90
26623;DHT22;14254;50.968;5.366;2023-08-17T02:09:34;19.70;99.90
26623;DHT22;14254;50.968;5.366;2023-08-17T02:12:00;19.70;99.90
26623;DHT22;14254;50.968;5.366;2023-08-17T02:14:25;19.70;99.90
26623;DHT22;14254;50.968;5.366;2023-08-17T02:16:52;19.60;99.90
26623;DHT22;14254;50.968;5.366;2023-08-17T02:19:17;19.60;99.90
26623;DHT22;14254;50.968;5.366;2023-08-17T02:21:43;19.60;99.90
26623;DHT22;14254;50.968;5.366;2023-08-17T02:24:10;19.60;99.90
26623;DHT22;14254;50.968;5.366;2023-08-17T02:26:36;19.60;99.90
26623;DHT22;14254;50.968;5.366;2023-08-17T02:29:03;19.60;99.90
26623;DHT22;14254;50.968;5.366;2023-08-17T02:31:29;19.60;99.90
26623;DHT22;14254;50.968;5.366;2023-08-17T02:33:55;19.50;99.90
26623;DHT22;14254;50.968;5.366;2023-08-17T02:36:26;19.60;99.90
26623;DHT22;14254;50.968;5.366;2023-08-17T02:38:52;19.60;99.90
26623;DHT22;14254;50.968;5.366;2023-08-17T02:41:17;19.50;99.90
26623;DHT22;14254;50.968;5.366;2023-08-17T02:43:43;19.50;99.90
26623;DHT22;14254;50.968;5.366;2023-08-17T02:46:08;19.50;99.90
26623;DHT22;14254;50.968;5.366;2023-08-17T02:48:35;19.40;99.90
26623;DHT22;14254;50.968;5.366;2023-08-17T02:51:00;19.30;99.90
26623;DHT22;14254;50.968;5.366;2023-08-17T02:53:26;19.30;99.90
26623;DHT22;14254;50.968;5.366;2023-08-17T02:55:51;19.20;99.90
26623;DHT22;14254;50.968;5.366;2023-08-17T02:58:17;19.30;99.90
26623;DHT22;14254;50.968;5.366;2023-08-17T03:00:43;19.30;99.90
26623;DHT22;14254;50.968;5.366;2023-08-17T03:03:08;19.20;99.90
26623;DHT22;14254;50.968;5.366;2023-08-17T03:05:34;19.30;99.90
26623;DHT22;14254;50.968;5.366;2023-08-17T03:08:00;19.30;99.90
26623;DHT22;14254;50.968;5.366;2023-08-17T03:10:25;19.20;99.90
26623;DHT22;14254;50.968;5.366;2023-08-17T03:12:51;19.20;99.90
26623;DHT22;14254;50.968;5.366;2023-08-17T03:15:17;19.10;99.90
26623;DHT22;14254;50.968;5.366;2023-08-17T03:17:43;19.20;99.90
26623;DHT22;14254;50.968;5.366;2023-08-17T03:20:09;19.20;99.90
26623;DHT22;14254;50.968;5.366;2023-08-17T03:22:35;19.20;99.90
26623;DHT22;14254;50.968;5.366;2023-08-17T03:25:01;19.10;99.90
26623;DHT22;14254;50.968;5.366;2023-08-17T03:27:26;19.10;99.90
26623;DHT22;14254;50.968;5.366;2023-08-17T03:29:54;19.20;99.90
26623;DHT22;14254;50.968;5.366;2023-08-17T03:32:19;19.10;99.90
26623;DHT22;14254;50.968;5.366;2023-08-17T03:34:45;19.20;99.90
26623;DHT22;14254;50.968;5.366;2023-08-17T03:37:11;19.10;99.90
26623;DHT22;14254;50.968;5.366;2023-08-17T03:39:37;19.10;99.90
26623;DHT22;14254;50.968;5.366;2023-08-17T03:42:02;19.10;99.90
26623;DHT22;14254;50.968;5.366;2023-08-17T03:44:28;19.10;99.90
26623;DHT22;14254;50.968;5.366;2023-08-17T03:46:54;19.20;99.90
26623;DHT22;14254;50.968;5.366;2023-08-17T03:49:19;19.20;99.90
26623;DHT22;14254;50.968;5.366;2023-08-17T03:51:45;19.10;99.90
26623;DHT22;14254;50.968;5.366;2023-08-17T03:54:12;19.20;99.90
26623;DHT22;14254;50.968;5.366;2023-08-17T03:56:38;19.10;99.90
26623;DHT22;14254;50.968;5.366;2023-08-17T03:59:04;19.00;99.90
26623;DHT22;14254;50.968;5.366;2023-08-17T04:01:29;19.00;99.90
26623;DHT22;14254;50.968;5.366;2023-08-17T04:03:55;18.90;99.90
26623;DHT22;14254;50.968;5.366;2023-08-17T04:06:21;18.90;99.90
26623;DHT22;14254;50.968;5.366;2023-08-17T04:08:47;19.00;99.90
26623;DHT22;14254;50.968;5.366;2023-08-17T04:11:13;18.90;99.90
26623;DHT22;14254;50.968;5.366;2023-08-17T04:13:38;18.90;99.90
26623;DHT22;14254;50.968;5.366;2023-08-17T04:16:04;19.00;99.90
26623;DHT22;14254;50.968;5.366;2023-08-17T04:18:30;18.90;99.90
26623;DHT22;14254;50.968;5.366;2023-08-17T04:20:55;19.00;99.90
26623;DHT22;14254;50.968;5.366;2023-08-17T04:23:21;18.80;99.90
26623;DHT22;14254;50.968;5.366;2023-08-17T04:25:47;18.90;99.90
26623;DHT22;14254;50.968;5.366;2023-08-17T04:28:13;18.90;99.90
26623;DHT22;14254;50.968;5.366;2023-08-17T04:30:39;18.80;99.90
26623;DHT22;14254;50.968;5.366;2023-08-17T04:33:05;18.80;99.90
26623;DHT22;14254;50.968;5.366;2023-08-17T04:35:33;18.70;99.90
26623;DHT22;14254;50.968;5.366;2023-08-17T04:37:59;18.70;99.90
26623;DHT22;14254;50.968;5.366;2023-08-17T04:40:24;18.60;99.90
26623;DHT22;14254;50.968;5.366;2023-08-17T04:42:50;18.60;99.90
26623;DHT22;14254;50.968;5.366;2023-08-17T04:45:16;18.60;99.90
26623;DHT22;14254;50.968;5.366;2023-08-17T04:47:41;18.60;99.90
26623;DHT22;14254;50.968;5.366;2023-08-17T04:50:07;18.70;99.90
26623;DHT22;14254;50.968;5.366;2023-08-17T04:52:33;18.60;99.90
26623;DHT22;14254;50.968;5.366;2023-08-17T04:54:59;18.60;99.90
26623;DHT22;14254;50.968;5.366;2023-08-17T04:57:24;18.60;99.90
26623;DHT22;14254;50.968;5.366;2023-08-17T04:59:51;18.60;99.90
26623;DHT22;14254;50.968;5.366;2023-08-17T05:02:17;18.50;99.90
26623;DHT22;14254;50.968;5.366;2023-08-17T05:04:42;18.50;99.90
26623;DHT22;14254;50.968;5.366;2023-08-17T05:07:08;18.50;99.90
26623;DHT22;14254;50.968;5.366;2023-08-17T05:09:34;18.50;99.90
26623;DHT22;14254;50.968;5.366;2023-08-17T05:12:00;18.50;99.90
26623;DHT22;14254;50.968;5.366;2023-08-17T05:14:25;18.50;99.90
26623;DHT22;14254;50.968;5.366;2023-08-17T05:16:51;18.60;99.90
26623;DHT22;14254;50.968;5.366;2023-08-17T05:19:17;18.70;99.90
26623;DHT22;14254;50.968;5.366;2023-08-17T05:21:42;18.70;99.90
26623;DHT22;14254;50.968;5.366;2023-08-17T05:24:08;18.70;99.90
26623;DHT22;14254;50.968;5.366;2023-08-17T05:26:33;18.60;99.90
26623;DHT22;14254;50.968;5.366;2023-08-17T05:28:59;18.50;99.90
26623;DHT22;14254;50.968;5.366;2023-08-17T05:31:25;18.40;99.90
26623;DHT22;14254;50.968;5.366;2023-08-17T05:33:51;18.40;99.90
26623;DHT22;14254;50.968;5.366;2023-08-17T05:36:17;18.40;99.90
26623;DHT22;14254;50.968;5.366;2023-08-17T05:38:42;18.40;99.90
26623;DHT22;14254;50.968;5.366;2023-08-17T05:41:08;18.40;99.90
26623;DHT22;14254;50.968;5.366;2023-08-17T05:43:34;18.40;99.90
26623;DHT22;14254;50.968;5.366;2023-08-17T05:46:00;18.40;99.90
26623;DHT22;14254;50.968;5.366;2023-08-17T05:48:25;18.30;99.90
26623;DHT22;14254;50.968;5.366;2023-08-17T05:50:51;18.10;99.90
26623;DHT22;14254;50.968;5.366;2023-08-17T05:53:17;18.00;99.90
26623;DHT22;14254;50.968;5.366;2023-08-17T05:55:43;18.00;99.90
26623;DHT22;14254;50.968;5.366;2023-08-17T05:58:08;18.00;99.90
26623;DHT22;14254;50.968;5.366;2023-08-17T06:00:34;18.10;99.90
26623;DHT22;14254;50.968;5.366;2023-08-17T06:03:00;18.10;99.90
26623;DHT22;14254;50.968;5.366;2023-08-17T06:05:29;18.20;99.90
26623;DHT22;14254;50.968;5.366;2023-08-17T06:07:56;18.20;99.90
26623;DHT22;14254;50.968;5.366;2023-08-17T06:10:22;18.30;99.90
26623;DHT22;14254;50.968;5.366;2023-08-17T06:12:55;18.30;99.90
26623;DHT22;14254;50.968;5.366;2023-08-17T06:15:22;18.30;99.90
26623;DHT22;14254;50.968;5.366;2023-08-17T06:17:48;18.30;99.90
26623;DHT22;14254;50.968;5.366;2023-08-17T06:20:17;18.30;99.90
26623;DHT22;14254;50.968;5.366;2023-08-17T06:22:43;18.40;99.90
26623;DHT22;14254;50.968;5.366;2023-08-17T06:25:09;18.50;99.90
26623;DHT22;14254;50.968;5.366;2023-08-17T06:27:35;18.50;99.90
26623;DHT22;14254;50.968;5.366;2023-08-17T06:30:02;18.40;99.90
26623;DHT22;14254;50.968;5.366;2023-08-17T06:32:29;18.60;99.90
26623;DHT22;14254;50.968;5.366;2023-08-17T06:34:55;18.70;99.90
26623;DHT22;14254;50.968;5.366;2023-08-17T06:37:20;18.80;99.90
26623;DHT22;14254;50.968;5.366;2023-08-17T06:39:46;18.70;99.90
26623;DHT22;14254;50.968;5.366;2023-08-17T06:42:12;18.60;99.90
26623;DHT22;14254;50.968;5.366;2023-08-17T06:44:38;18.60;99.90
26623;DHT22;14254;50.968;5.366;2023-08-17T06:47:03;18.60;99.90
26623;DHT22;14254;50.968;5.366;2023-08-17T06:49:30;18.60;99.90
26623;DHT22;14254;50.968;5.366;2023-08-17T06:51:56;18.50;99.90
26623;DHT22;14254;50.968;5.366;2023-08-17T06:54:22;18.50;99.90
26623;DHT22;14254;50.968;5.366;2023-08-17T06:56:47;18.50;99.90
26623;DHT22;14254;50.968;5.366;2023-08-17T06:59:13;18.60;99.90
26623;DHT22;14254;50.968;5.366;2023-08-17T07:01:38;18.60;99.90
26623;DHT22;14254;50.968;5.366;2023-08-17T07:04:04;18.70;99.90
26623;DHT22;14254;50.968;5.366;2023-08-17T07:06:30;18.70;99.90
26623;DHT22;14254;50.968;5.366;2023-08-17T07:08:56;18.70;99.90
26623;DHT22;14254;50.968;5.366;2023-08-17T07:11:22;18.60;99.90
26623;DHT22;14254;50.968;5.366;2023-08-17T07:13:47;18.80;99.90
26623;DHT22;14254;50.968;5.366;2023-08-17T07:16:13;18.90;99.90
26623;DHT22;14254;50.968;5.366;2023-08-17T07:18:39;19.00;99.90
26623;DHT22;14254;50.968;5.366;2023-08-17T07:21:05;19.00;99.90
26623;DHT22;14254;50.968;5.366;2023-08-17T07:23:31;19.30;99.90
26623;DHT22;14254;50.968;5.366;2023-08-17T07:25:57;19.40;99.90
26623;DHT22;14254;50.968;5.366;2023-08-17T07:28:23;19.60;99.90
26623;DHT22;14254;50.968;5.366;2023-08-17T07:30:48;19.60;99.90
26623;DHT22;14254;50.968;5.366;2023-08-17T07:33:14;19.60;99.90
26623;DHT22;14254;50.968;5.366;2023-08-17T07:35:40;19.70;99.90
26623;DHT22;14254;50.968;5.366;2023-08-17T07:38:05;19.60;99.90
26623;DHT22;14254;50.968;5.366;2023-08-17T07:40:31;19.70;99.90
26623;DHT22;14254;50.968;5.366;2023-08-17T07:42:57;19.80;99.90
26623;DHT22;14254;50.968;5.366;2023-08-17T07:45:22;19.80;99.90
26623;DHT22;14254;50.968;5.366;2023-08-17T07:47:48;19.70;99.90
26623;DHT22;14254;50.968;5.366;2023-08-17T07:50:14;19.50;99.90
26623;DHT22;14254;50.968;5.366;2023-08-17T07:52:39;19.40;99.90
26623;DHT22;14254;50.968;5.366;2023-08-17T07:55:05;19.40;99.90
26623;DHT22;14254;50.968;5.366;2023-08-17T07:57:31;19.60;99.90
26623;DHT22;14254;50.968;5.366;2023-08-17T07:59:56;19.50;99.90
26623;DHT22;14254;50.968;5.366;2023-08-17T08:02:22;19.50;99.90
26623;DHT22;14254;50.968;5.366;2023-08-17T08:04:48;19.50;99.90
26623;DHT22;14254;50.968;5.366;2023-08-17T08:07:13;19.30;99.90
26623;DHT22;14254;50.968;5.366;2023-08-17T08:09:39;19.30;99.90
26623;DHT22;14254;50.968;5.366;2023-08-17T08:12:05;19.50;99.90
26623;DHT22;14254;50.968;5.366;2023-08-17T08:14:31;19.60;99.90
26623;DHT22;14254;50.968;5.366;2023-08-17T08:16:56;19.60;99.90
26623;DHT22;14254;50.968;5.366;2023-08-17T08:19:22;19.60;99.90
26623;DHT22;14254;50.968;5.366;2023-08-17T08:21:48;19.80;99.90
26623;DHT22;14254;50.968;5.366;2023-08-17T08:24:14;19.90;99.90
26623;DHT22;14254;50.968;5.366;2023-08-17T08:26:40;19.80;99.90
26623;DHT22;14254;50.968;5.366;2023-08-17T08:29:05;19.80;99.90
26623;DHT22;14254;50.968;5.366;2023-08-17T08:31:31;19.70;99.90
26623;DHT22;14254;50.968;5.366;2023-08-17T08:33:56;19.70;99.90
26623;DHT22;14254;50.968;5.366;2023-08-17T08:36:22;19.70;99.90
26623;DHT22;14254;50.968;5.366;2023-08-17T08:38:48;19.90;99.90
26623;DHT22;14254;50.968;5.366;2023-08-17T08:41:13;20.10;99.90
26623;DHT22;14254;50.968;5.366;2023-08-17T08:43:39;20.20;99.90
26623;DHT22;14254;50.968;5.366;2023-08-17T08:46:05;20.20;99.90
26623;DHT22;14254;50.968;5.366;2023-08-17T08:48:31;20.40;99.90
26623;DHT22;14254;50.968;5.366;2023-08-17T08:51:00;20.50;99.90
26623;DHT22;14254;50.968;5.366;2023-08-17T08:53:38;20.70;99.90
26623;DHT22;14254;50.968;5.366;2023-08-17T08:56:07;20.80;99.90
26623;DHT22;14254;50.968;5.366;2023-08-17T08:58:37;21.00;99.90
26623;DHT22;14254;50.968;5.366;2023-08-17T09:01:04;21.00;99.90
26623;DHT22;14254;50.968;5.366;2023-08-17T09:03:30;21.10;99.90
26623;DHT22;14254;50.968;5.366;2023-08-17T09:05:57;21.20;99.90
26623;DHT22;14254;50.968;5.366;2023-08-17T09:08:28;21.10;99.90
26623;DHT22;14254;50.968;5.366;2023-08-17T09:10:55;21.10;99.90
26623;DHT22;14254;50.968;5.366;2023-08-17T09:13:20;21.00;99.90
26623;DHT22;14254;50.968;5.366;2023-08-17T09:15:46;20.90;99.90
26623;DHT22;14254;50.968;5.366;2023-08-17T09:18:12;20.80;99.90
26623;DHT22;14254;50.968;5.366;2023-08-17T09:20:43;20.80;99.90
26623;DHT22;14254;50.968;5.366;2023-08-17T09:23:21;20.80;99.90
26623;DHT22;14254;50.968;5.366;2023-08-17T09:25:48;20.80;99.90
26623;DHT22;14254;50.968;5.366;2023-08-17T09:28:16;21.00;99.90
26623;DHT22;14254;50.968;5.366;2023-08-17T09:31:01;21.00;99.90
26623;DHT22;14254;50.968;5.366;2023-08-17T09:33:32;21.00;99.90
26623;DHT22;14254;50.968;5.366;2023-08-17T09:35:59;21.10;99.90
26623;DHT22;14254;50.968;5.366;2023-08-17T09:38:26;21.10;99.90
26623;DHT22;14254;50.968;5.366;2023-08-17T09:40:52;21.30;99.90
26623;DHT22;14254;50.968;5.366;2023-08-17T09:43:18;21.00;99.90
26623;DHT22;14254;50.968;5.366;2023-08-17T09:45:47;21.00;99.90
26623;DHT22;14254;50.968;5.366;2023-08-17T09:48:19;21.10;99.90
26623;DHT22;14254;50.968;5.366;2023-08-17T09:50:46;21.30;99.90
26623;DHT22;14254;50.968;5.366;2023-08-17T09:53:18;21.10;99.90
26623;DHT22;14254;50.968;5.366;2023-08-17T09:55:45;21.10;99.90
26623;DHT22;14254;50.968;5.366;2023-08-17T09:58:11;21.40;99.90
26623;DHT22;14254;50.968;5.366;2023-08-17T10:00:50;21.30;99.90
26623;DHT22;14254;50.968;5.366;2023-08-17T10:03:17;21.40;99.90
26623;DHT22;14254;50.968;5.366;2023-08-17T10:05:45;21.30;99.90
26623;DHT22;14254;50.968;5.366;2023-08-17T10:08:13;21.20;99.90
26623;DHT22;14254;50.968;5.366;2023-08-17T10:10:45;21.20;99.90
26623;DHT22;14254;50.968;5.366;2023-08-17T10:18:55;21.30;99.90
26623;DHT22;14254;50.968;5.366;2023-08-17T10:21:28;21.20;99.90
26623;DHT22;14254;50.968;5.366;2023-08-17T10:23:55;21.30;99.90
26623;DHT22;14254;50.968;5.366;2023-08-17T10:26:22;21.50;99.90
26623;DHT22;14254;50.968;5.366;2023-08-17T10:28:49;21.80;99.90
26623;DHT22;14254;50.968;5.366;2023-08-17T10:31:15;21.70;99.90
26623;DHT22;14254;50.968;5.366;2023-08-17T10:33:42;21.60;99.90
26623;DHT22;14254;50.968;5.366;2023-08-17T10:36:12;21.50;99.90
26623;DHT22;14254;50.968;5.366;2023-08-17T10:38:38;21.60;99.90
26623;DHT22;14254;50.968;5.366;2023-08-17T10:41:12;21.90;99.90
26623;DHT22;14254;50.968;5.366;2023-08-17T10:43:54;21.90;99.90
26623;DHT22;14254;50.968;5.366;2023-08-17T10:46:20;22.30;99.90
26623;DHT22;14254;50.968;5.366;2023-08-17T10:48:46;22.20;99.90
26623;DHT22;14254;50.968;5.366;2023-08-17T10:51:12;21.90;99.90
26623;DHT22;14254;50.968;5.366;2023-08-17T10:53:43;21.70;99.90
26623;DHT22;14254;50.968;5.366;2023-08-17T10:56:13;21.30;99.90
26623;DHT22;14254;50.968;5.366;2023-08-17T10:58:41;21.30;99.90
26623;DHT22;14254;50.968;5.366;2023-08-17T11:01:09;21.50;99.90
26623;DHT22;14254;50.968;5.366;2023-08-17T11:03:35;21.40;99.90
26623;DHT22;14254;50.968;5.366;2023-08-17T11:06:22;21.40;99.90
26623;DHT22;14254;50.968;5.366;2023-08-17T11:08:55;21.40;99.90
26623;DHT22;14254;50.968;5.366;2023-08-17T11:11:22;21.50;99.90
26623;DHT22;14254;50.968;5.366;2023-08-17T11:13:48;21.60;99.90
26623;DHT22;14254;50.968;5.366;2023-08-17T11:16:17;21.90;99.90
26623;DHT22;14254;50.968;5.366;2023-08-17T11:18:48;21.60;99.90
26623;DHT22;14254;50.968;5.366;2023-08-17T11:21:15;21.70;99.90
26623;DHT22;14254;50.968;5.366;2023-08-17T11:23:41;21.50;99.90
26623;DHT22;14254;50.968;5.366;2023-08-17T11:26:07;21.60;99.90
26623;DHT22;14254;50.968;5.366;2023-08-17T11:28:34;21.80;99.90
26623;DHT22;14254;50.968;5.366;2023-08-17T11:31:08;21.60;99.90
26623;DHT22;14254;50.968;5.366;2023-08-17T11:33:36;21.60;99.90
26623;DHT22;14254;50.968;5.366;2023-08-17T11:36:04;21.70;99.90
26623;DHT22;14254;50.968;5.366;2023-08-17T11:38:38;21.80;99.90
26623;DHT22;14254;50.968;5.366;2023-08-17T11:41:05;21.60;99.90
26623;DHT22;14254;50.968;5.366;2023-08-17T11:43:33;21.70;99.90
26623;DHT22;14254;50.968;5.366;2023-08-17T11:46:00;22.00;99.90
26623;DHT22;14254;50.968;5.366;2023-08-17T11:48:27;22.00;99.90
26623;DHT22;14254;50.968;5.366;2023-08-17T11:50:53;21.80;99.90
26623;DHT22;14254;50.968;5.366;2023-08-17T11:53:20;21.80;99.90
26623;DHT22;14254;50.968;5.366;2023-08-17T11:55:46;22.00;99.90
26623;DHT22;14254;50.968;5.366;2023-08-17T11:58:12;21.80;99.90
26623;DHT22;14254;50.968;5.366;2023-08-17T12:00:42;21.90;99.90
26623;DHT22;14254;50.968;5.366;2023-08-17T12:03:13;21.80;99.90
26623;DHT22;14254;50.968;5.366;2023-08-17T12:05:40;21.60;99.90
26623;DHT22;14254;50.968;5.366;2023-08-17T12:08:07;21.60;99.90
26623;DHT22;14254;50.968;5.366;2023-08-17T12:10:33;21.80;99.90
26623;DHT22;14254;50.968;5.366;2023-08-17T12:12:59;22.20;99.90
26623;DHT22;14254;50.968;5.366;2023-08-17T12:15:30;22.20;99.90
26623;DHT22;14254;50.968;5.366;2023-08-17T12:17:59;22.00;99.90
26623;DHT22;14254;50.968;5.366;2023-08-17T12:20:25;22.50;99.90
26623;DHT22;14254;50.968;5.366;2023-08-17T12:22:51;22.70;99.90
26623;DHT22;14254;50.968;5.366;2023-08-17T12:25:20;22.60;99.90
26623;DHT22;14254;50.968;5.366;2023-08-17T12:27:47;22.50;99.90
26623;DHT22;14254;50.968;5.366;2023-08-17T12:30:24;22.40;99.90
26623;DHT22;14254;50.968;5.366;2023-08-17T12:32:50;22.20;99.90
26623;DHT22;14254;50.968;5.366;2023-08-17T12:35:15;22.30;99.90
26623;DHT22;14254;50.968;5.366;2023-08-17T12:37:41;22.30;99.90
26623;DHT22;14254;50.968;5.366;2023-08-17T12:40:07;22.60;99.90
26623;DHT22;14254;50.968;5.366;2023-08-17T12:42:33;22.80;99.90
26623;DHT22;14254;50.968;5.366;2023-08-17T12:44:59;22.80;99.90
26623;DHT22;14254;50.968;5.366;2023-08-17T12:47:24;22.70;99.90
26623;DHT22;14254;50.968;5.366;2023-08-17T12:49:50;22.60;99.90
26623;DHT22;14254;50.968;5.366;2023-08-17T12:52:16;22.80;99.90
26623;DHT22;14254;50.968;5.366;2023-08-17T12:54:41;22.70;99.90
26623;DHT22;14254;50.968;5.366;2023-08-17T12:57:07;22.40;99.90
26623;DHT22;14254;50.968;5.366;2023-08-17T12:59:33;22.30;99.90
26623;DHT22;14254;50.968;5.366;2023-08-17T13:01:59;22.60;99.90
26623;DHT22;14254;50.968;5.366;2023-08-17T13:04:25;23.00;99.90
26623;DHT22;14254;50.968;5.366;2023-08-17T13:06:51;23.40;99.90
26623;DHT22;14254;50.968;5.366;2023-08-17T13:09:17;23.50;99.90
26623;DHT22;14254;50.968;5.366;2023-08-17T13:11:44;23.30;99.90
26623;DHT22;14254;50.968;5.366;2023-08-17T13:14:11;23.40;99.90
26623;DHT22;14254;50.968;5.366;2023-08-17T13:16:37;23.20;99.90
26623;DHT22;14254;50.968;5.366;2023-08-17T13:19:03;23.50;99.90
26623;DHT22;14254;50.968;5.366;2023-08-17T13:21:28;23.30;99.90
26623;DHT22;14254;50.968;5.366;2023-08-17T13:23:54;23.40;99.90
26623;DHT22;14254;50.968;5.366;2023-08-17T13:26:22;23.50;99.90
26623;DHT22;14254;50.968;5.366;2023-08-17T13:28:48;23.40;99.90
26623;DHT22;14254;50.968;5.366;2023-08-17T13:31:13;23.80;99.90
26623;DHT22;14254;50.968;5.366;2023-08-17T13:33:39;24.30;99.90
26623;DHT22;14254;50.968;5.366;2023-08-17T13:36:05;24.40;99.90
26623;DHT22;14254;50.968;5.366;2023-08-17T13:38:31;23.80;99.90
26623;DHT22;14254;50.968;5.366;2023-08-17T13:40:57;23.60;99.90
26623;DHT22;14254;50.968;5.366;2023-08-17T13:43:22;23.30;99.90
26623;DHT22;14254;50.968;5.366;2023-08-17T13:45:48;22.90;99.90
26623;DHT22;14254;50.968;5.366;2023-08-17T13:48:14;22.80;99.90
26623;DHT22;14254;50.968;5.366;2023-08-17T13:50:40;23.10;99.90
26623;DHT22;14254;50.968;5.366;2023-08-17T13:53:06;23.10;99.90
26623;DHT22;14254;50.968;5.366;2023-08-17T13:55:32;23.10;99.90
26623;DHT22;14254;50.968;5.366;2023-08-17T13:57:58;22.90;99.90
26623;DHT22;14254;50.968;5.366;2023-08-17T14:00:27;22.80;99.90
26623;DHT22;14254;50.968;5.366;2023-08-17T14:02:52;22.90;99.90
26623;DHT22;14254;50.968;5.366;2023-08-17T14:05:18;22.90;99.90
26623;DHT22;14254;50.968;5.366;2023-08-17T14:07:44;23.00;99.90
26623;DHT22;14254;50.968;5.366;2023-08-17T14:10:10;22.70;99.90
26623;DHT22;14254;50.968;5.366;2023-08-17T14:12:35;22.70;99.90
26623;DHT22;14254;50.968;5.366;2023-08-17T14:15:01;22.70;99.90
26623;DHT22;14254;50.968;5.366;2023-08-17T14:17:27;22.80;99.90
26623;DHT22;14254;50.968;5.366;2023-08-17T14:19:53;23.20;99.90
26623;DHT22;14254;50.968;5.366;2023-08-17T14:22:20;23.00;99.90
26623;DHT22;14254;50.968;5.366;2023-08-17T14:24:45;22.80;99.90
26623;DHT22;14254;50.968;5.366;2023-08-17T14:27:11;22.90;99.90
26623;DHT22;14254;50.968;5.366;2023-08-17T14:29:37;22.90;99.90
26623;DHT22;14254;50.968;5.366;2023-08-17T14:32:02;23.00;99.90
26623;DHT22;14254;50.968;5.366;2023-08-17T14:34:28;23.00;99.90
26623;DHT22;14254;50.968;5.366;2023-08-17T14:36:55;22.70;99.90
26623;DHT22;14254;50.968;5.366;2023-08-17T14:39:20;22.80;99.90
26623;DHT22;14254;50.968;5.366;2023-08-17T14:41:46;22.80;99.90
26623;DHT22;14254;50.968;5.366;2023-08-17T14:44:12;22.80;99.90
26623;DHT22;14254;50.968;5.366;2023-08-17T14:46:37;22.80;99.90
26623;DHT22;14254;50.968;5.366;2023-08-17T14:49:05;23.00;99.90
26623;DHT22;14254;50.968;5.366;2023-08-17T14:51:39;23.00;99.90
26623;DHT22;14254;50.968;5.366;2023-08-17T14:54:06;22.90;99.90
26623;DHT22;14254;50.968;5.366;2023-08-17T14:56:32;22.70;99.90
26623;DHT22;14254;50.968;5.366;2023-08-17T14:58:58;22.70;99.90
26623;DHT22;14254;50.968;5.366;2023-08-17T15:01:24;23.20;99.90
26623;DHT22;14254;50.968;5.366;2023-08-17T15:03:49;23.50;99.90
26623;DHT22;14254;50.968;5.366;2023-08-17T15:06:15;23.60;99.90
26623;DHT22;14254;50.968;5.366;2023-08-17T15:08:41;23.70;99.90
26623;DHT22;14254;50.968;5.366;2023-08-17T15:11:07;23.90;99.90
26623;DHT22;14254;50.968;5.366;2023-08-17T15:13:32;23.90;99.90
26623;DHT22;14254;50.968;5.366;2023-08-17T15:15:58;23.80;99.90
26623;DHT22;14254;50.968;5.366;2023-08-17T15:18:24;23.50;99.90
26623;DHT22;14254;50.968;5.366;2023-08-17T15:20:50;23.00;99.90
26623;DHT22;14254;50.968;5.366;2023-08-17T15:23:15;22.50;99.90
26623;DHT22;14254;50.968;5.366;2023-08-17T15:25:41;22.50;99.90
26623;DHT22;14254;50.968;5.366;2023-08-17T15:28:07;22.60;99.90
26623;DHT22;14254;50.968;5.366;2023-08-17T15:30:33;22.80;99.90
26623;DHT22;14254;50.968;5.366;2023-08-17T15:32:58;23.10;99.90
26623;DHT22;14254;50.968;5.366;2023-08-17T15:35:24;23.20;99.90